createdAt,value
2019-03-19T00:00:53.363Z,5.63
2019-03-19T00:01:53.581Z,5.65
2019-03-19T00:02:54.333Z,5.64
2019-03-19T00:03:53.414Z,5.63
2019-03-19T00:04:53.405Z,5.62
2019-03-19T00:05:53.436Z,5.59
2019-03-19T00:06:53.395Z,5.59
2019-03-19T00:07:53.449Z,5.58
2019-03-19T00:08:53.384Z,5.57
2019-03-19T00:09:53.387Z,5.56
2019-03-19T00:10:53.402Z,5.54
2019-03-19T00:11:53.404Z,5.52
2019-03-19T00:12:53.408Z,5.53
2019-03-19T00:13:53.394Z,5.54
2019-03-19T00:14:53.376Z,5.53
2019-03-19T00:15:53.389Z,5.52
2019-03-19T00:16:54.255Z,5.45
2019-03-19T00:17:53.461Z,5.45
2019-03-19T00:18:53.384Z,5.46
2019-03-19T00:19:53.391Z,5.46
2019-03-19T00:20:53.407Z,5.46
2019-03-19T00:21:53.343Z,5.47
2019-03-19T00:22:53.407Z,5.48
2019-03-19T00:23:53.641Z,5.47
2019-03-19T00:24:53.735Z,5.48
2019-03-19T00:25:53.506Z,5.46
2019-03-19T00:26:53.388Z,5.45
2019-03-19T00:27:53.387Z,5.46
2019-03-19T00:28:53.350Z,5.45
2019-03-19T00:29:53.521Z,5.42
2019-03-19T00:30:53.351Z,5.44
2019-03-19T00:31:53.377Z,5.42
2019-03-19T00:32:53.389Z,5.42
2019-03-19T00:33:53.546Z,5.42
2019-03-19T00:34:53.323Z,5.41
2019-03-19T00:35:53.326Z,5.4
2019-03-19T00:36:53.369Z,5.39
2019-03-19T00:37:53.352Z,5.39
2019-03-19T00:38:53.324Z,5.35
2019-03-19T00:39:53.334Z,5.32
2019-03-19T00:40:53.338Z,5.31
2019-03-19T00:41:53.539Z,5.29
2019-03-19T00:42:53.377Z,5.31
2019-03-19T00:43:53.325Z,5.31
2019-03-19T00:44:53.358Z,5.29
2019-03-19T00:45:53.561Z,5.28
2019-03-19T00:46:53.575Z,5.25
2019-03-19T00:47:53.354Z,5.28
2019-03-19T00:48:53.312Z,5.28
2019-03-19T00:49:53.320Z,5.28
2019-03-19T00:50:53.326Z,5.3
2019-03-19T00:51:54.218Z,5.3
2019-03-19T00:52:53.336Z,5.32
2019-03-19T00:53:53.294Z,5.33
2019-03-19T00:54:53.329Z,5.29
2019-03-19T00:55:53.316Z,5.31
2019-03-19T00:56:53.323Z,5.32
2019-03-19T00:57:53.302Z,5.32
2019-03-19T00:58:53.295Z,5.3
2019-03-19T00:59:53.312Z,5.33
2019-03-19T01:00:53.293Z,5.29
2019-03-19T01:01:53.302Z,5.29
2019-03-19T01:02:53.308Z,5.31
2019-03-19T01:03:53.365Z,5.3
2019-03-19T01:04:53.349Z,5.3
2019-03-19T01:05:53.305Z,5.32
2019-03-19T01:06:53.334Z,5.31
2019-03-19T01:07:53.625Z,5.31
2019-03-19T01:08:53.279Z,5.34
2019-03-19T01:09:53.293Z,5.34
2019-03-19T01:10:53.307Z,5.32
2019-03-19T01:11:53.288Z,5.31
2019-03-19T01:12:53.282Z,5.33
2019-03-19T01:13:53.265Z,5.31
2019-03-19T01:14:53.296Z,5.31
2019-03-19T01:15:53.295Z,5.33
2019-03-19T01:16:53.281Z,5.31
2019-03-19T01:17:53.299Z,5.32
2019-03-19T01:18:53.301Z,5.31
2019-03-19T01:19:53.291Z,5.33
2019-03-19T01:20:53.265Z,5.33
2019-03-19T01:21:53.276Z,5.31
2019-03-19T01:22:53.269Z,5.33
2019-03-19T01:23:53.343Z,5.3
2019-03-19T01:24:53.347Z,5.31
2019-03-19T01:25:56.406Z,5.29
2019-03-19T01:26:53.276Z,5.28
2019-03-19T01:27:53.303Z,5.26
2019-03-19T01:28:53.260Z,5.24
2019-03-19T01:29:53.296Z,5.24
2019-03-19T01:30:53.317Z,5.23
2019-03-19T01:31:53.256Z,5.22
2019-03-19T01:32:53.320Z,5.22
2019-03-19T01:33:53.395Z,5.22
2019-03-19T01:34:53.284Z,5.22
2019-03-19T01:35:53.237Z,5.22
2019-03-19T01:36:53.230Z,5.21
2019-03-19T01:37:53.297Z,5.19
2019-03-19T01:38:53.261Z,5.19
2019-03-19T01:39:53.239Z,5.17
2019-03-19T01:40:53.251Z,5.17
2019-03-19T01:41:53.239Z,5.17
2019-03-19T01:42:53.239Z,5.14
2019-03-19T01:43:53.252Z,5.13
2019-03-19T01:44:53.249Z,5.1
2019-03-19T01:45:53.229Z,5.09
2019-03-19T01:46:53.266Z,5.08
2019-03-19T01:47:53.213Z,5.06
2019-03-19T01:48:53.257Z,5.04
2019-03-19T01:49:53.230Z,5.03
2019-03-19T01:50:53.496Z,5.02
2019-03-19T01:51:53.218Z,5
2019-03-19T01:52:53.209Z,5
2019-03-19T01:53:53.222Z,4.97
2019-03-19T01:54:53.226Z,4.97
2019-03-19T01:55:53.226Z,4.96
2019-03-19T01:56:53.218Z,4.92
2019-03-19T01:57:53.226Z,4.92
2019-03-19T01:58:53.224Z,4.92
2019-03-19T01:59:53.231Z,4.9
2019-03-19T02:00:53.268Z,4.86
2019-03-19T02:01:53.218Z,4.86
2019-03-19T02:02:53.220Z,4.85
2019-03-19T02:03:53.217Z,4.81
2019-03-19T02:04:53.243Z,4.8
2019-03-19T02:05:53.309Z,4.76
2019-03-19T02:06:53.206Z,4.77
2019-03-19T02:07:53.255Z,4.74
2019-03-19T02:08:53.264Z,4.73
2019-03-19T02:09:53.184Z,4.69
2019-03-19T02:10:53.206Z,4.67
2019-03-19T02:11:53.207Z,4.64
2019-03-19T02:12:53.545Z,4.61
2019-03-19T02:13:53.204Z,4.57
2019-03-19T02:14:53.194Z,4.57
2019-03-19T02:15:53.206Z,4.55
2019-03-19T02:16:53.183Z,4.54
2019-03-19T02:17:53.209Z,4.5
2019-03-19T02:18:53.187Z,4.49
2019-03-19T02:19:53.196Z,4.48
2019-03-19T02:20:53.193Z,4.44
2019-03-19T02:21:53.196Z,4.42
2019-03-19T02:22:53.377Z,4.39
2019-03-19T02:23:53.201Z,4.38
2019-03-19T02:24:53.207Z,4.38
2019-03-19T02:25:53.189Z,4.38
2019-03-19T02:26:53.250Z,4.36
2019-03-19T02:27:53.316Z,4.35
2019-03-19T02:28:53.197Z,4.34
2019-03-19T02:29:53.188Z,4.3
2019-03-19T02:30:53.350Z,4.28
2019-03-19T02:31:53.209Z,4.24
2019-03-19T02:32:53.202Z,4.23
2019-03-19T02:33:53.332Z,4.23
2019-03-19T02:34:53.381Z,4.2
2019-03-19T02:35:53.244Z,4.21
2019-03-19T02:36:53.192Z,4.21
2019-03-19T02:37:53.364Z,4.2
2019-03-19T02:38:53.197Z,4.19
2019-03-19T02:39:53.158Z,4.2
2019-03-19T02:40:53.244Z,4.19
2019-03-19T02:41:53.218Z,4.19
2019-03-19T02:42:53.223Z,4.18
2019-03-19T02:43:53.138Z,4.16
2019-03-19T02:44:53.160Z,4.18
2019-03-19T02:45:53.169Z,4.18
2019-03-19T02:46:53.146Z,4.16
2019-03-19T02:47:53.585Z,4.14
2019-03-19T02:48:53.223Z,4.13
2019-03-19T02:49:53.171Z,4.11
2019-03-19T02:50:53.164Z,4.08
2019-03-19T02:51:53.160Z,4.06
2019-03-19T02:52:53.206Z,4.06
2019-03-19T02:53:53.149Z,4.02
2019-03-19T02:54:53.125Z,4
2019-03-19T02:55:54.997Z,4.02
2019-03-19T02:56:53.138Z,4
2019-03-19T02:57:53.167Z,3.99
2019-03-19T02:58:53.168Z,3.98
2019-03-19T02:59:53.111Z,3.96
2019-03-19T03:00:53.140Z,3.96
2019-03-19T03:01:53.200Z,3.95
2019-03-19T03:02:53.193Z,3.98
2019-03-19T03:03:53.131Z,3.97
2019-03-19T03:04:53.179Z,3.98
2019-03-19T03:05:53.246Z,3.95
2019-03-19T03:06:53.133Z,3.97
2019-03-19T03:07:53.185Z,3.98
2019-03-19T03:08:53.146Z,3.97
2019-03-19T03:09:53.110Z,3.97
2019-03-19T03:10:53.175Z,3.96
2019-03-19T03:11:53.128Z,3.94
2019-03-19T03:12:53.146Z,3.98
2019-03-19T03:13:53.114Z,3.97
2019-03-19T03:14:53.182Z,3.91
2019-03-19T03:15:53.059Z,3.92
2019-03-19T03:16:53.116Z,3.92
2019-03-19T03:17:53.116Z,3.9
2019-03-19T03:18:53.174Z,3.83
2019-03-19T03:19:53.141Z,3.8
2019-03-19T03:20:53.129Z,3.79
2019-03-19T03:21:53.118Z,3.79
2019-03-19T03:22:53.109Z,3.76
2019-03-19T03:23:53.099Z,3.79
2019-03-19T03:24:53.172Z,3.79
2019-03-19T03:25:53.134Z,3.8
2019-03-19T03:26:53.145Z,3.78
2019-03-19T03:27:53.174Z,3.79
2019-03-19T03:28:53.123Z,3.77
2019-03-19T03:29:53.087Z,3.78
2019-03-19T03:30:53.192Z,3.77
2019-03-19T03:31:53.146Z,3.77
2019-03-19T03:32:53.866Z,3.8
2019-03-19T03:33:53.098Z,3.8
2019-03-19T03:34:53.157Z,3.78
2019-03-19T03:35:53.128Z,3.8
2019-03-19T03:36:53.168Z,3.79
2019-03-19T03:37:53.129Z,3.78
2019-03-19T03:38:53.087Z,3.8
2019-03-19T03:39:53.059Z,3.81
2019-03-19T03:40:53.082Z,3.81
2019-03-19T03:41:53.267Z,3.84
2019-03-19T03:42:53.070Z,3.82
2019-03-19T03:43:53.031Z,3.83
2019-03-19T03:44:53.090Z,3.83
2019-03-19T03:45:53.198Z,3.8
2019-03-19T03:46:53.051Z,3.81
2019-03-19T03:47:53.091Z,3.82
2019-03-19T03:48:53.150Z,3.82
2019-03-19T03:49:53.146Z,3.8
2019-03-19T03:50:53.082Z,3.83
2019-03-19T03:51:53.044Z,3.84
2019-03-19T03:52:53.127Z,3.82
2019-03-19T03:53:53.078Z,3.82
2019-03-19T03:54:53.085Z,3.8
2019-03-19T03:55:53.142Z,3.78
2019-03-19T03:57:03.337Z,3.77
2019-03-19T03:57:53.086Z,3.76
2019-03-19T03:59:01.759Z,3.77
2019-03-19T03:59:53.097Z,3.76
2019-03-19T04:00:53.442Z,3.77
2019-03-19T04:01:53.086Z,3.77
2019-03-19T04:02:53.112Z,3.79
2019-03-19T04:03:53.012Z,3.78
2019-03-19T04:04:53.074Z,3.8
2019-03-19T04:05:53.050Z,3.81
2019-03-19T04:06:53.039Z,3.78
2019-03-19T04:07:53.003Z,3.79
2019-03-19T04:08:53.041Z,3.8
2019-03-19T04:09:53.206Z,3.78
2019-03-19T04:10:53.105Z,3.78
2019-03-19T04:11:53.051Z,3.78
2019-03-19T04:12:53.102Z,3.77
2019-03-19T04:13:53.033Z,3.77
2019-03-19T04:14:53.075Z,3.77
2019-03-19T04:15:53.070Z,3.76
2019-03-19T04:16:53.059Z,3.76
2019-03-19T04:17:53.024Z,3.76
2019-03-19T04:18:53.005Z,3.76
2019-03-19T04:19:53.041Z,3.76
2019-03-19T04:20:53.003Z,3.77
2019-03-19T04:21:53.044Z,3.78
2019-03-19T04:22:53.291Z,3.78
2019-03-19T04:23:53.043Z,3.78
2019-03-19T04:24:53.045Z,3.82
2019-03-19T04:25:53.041Z,3.8
2019-03-19T04:26:53.023Z,3.8
2019-03-19T04:27:53.032Z,3.84
2019-03-19T04:28:53.010Z,3.83
2019-03-19T04:29:53.023Z,3.79
2019-03-19T04:30:53.021Z,3.79
2019-03-19T04:31:53.080Z,3.78
2019-03-19T04:32:53.013Z,3.77
2019-03-19T04:33:53.059Z,3.76
2019-03-19T04:34:53.018Z,3.76
2019-03-19T04:35:52.983Z,3.8
2019-03-19T04:36:52.983Z,3.79
2019-03-19T04:37:52.984Z,3.79
2019-03-19T04:38:53.137Z,3.77
2019-03-19T04:39:52.976Z,3.78
2019-03-19T04:40:53.029Z,3.79
2019-03-19T04:41:52.998Z,3.79
2019-03-19T04:42:53.134Z,3.8
2019-03-19T04:43:53.295Z,3.79
2019-03-19T04:44:53.190Z,3.81
2019-03-19T04:45:52.989Z,3.8
2019-03-19T04:46:53.195Z,3.82
2019-03-19T04:47:52.994Z,3.81
2019-03-19T04:48:52.987Z,3.78
2019-03-19T04:49:52.991Z,3.78
2019-03-19T04:50:53.308Z,3.76
2019-03-19T04:51:52.972Z,3.76
2019-03-19T04:52:52.933Z,3.74
2019-03-19T04:53:52.982Z,3.75
2019-03-19T04:54:52.948Z,3.75
2019-03-19T04:55:52.944Z,3.75
2019-03-19T04:56:53.005Z,3.76
2019-03-19T04:57:52.944Z,3.75
2019-03-19T04:58:52.964Z,3.73
2019-03-19T04:59:52.994Z,3.74
2019-03-19T05:00:52.946Z,3.74
2019-03-19T05:01:52.923Z,3.75
2019-03-19T05:02:52.906Z,3.57
2019-03-19T05:03:52.927Z,3.5
2019-03-19T05:04:52.941Z,3.5
2019-03-19T05:05:53.242Z,3.38
2019-03-19T05:06:52.999Z,3.39
2019-03-19T05:07:52.964Z,3.4
2019-03-19T05:08:52.959Z,3.4
2019-03-19T05:09:52.963Z,3.38
2019-03-19T05:10:52.933Z,3.4
2019-03-19T05:11:52.930Z,3.41
2019-03-19T05:12:52.899Z,3.41
2019-03-19T05:13:52.906Z,3.37
2019-03-19T05:14:52.941Z,3.34
2019-03-19T05:15:52.918Z,3.33
2019-03-19T05:16:52.916Z,3.34
2019-03-19T05:17:52.903Z,3.31
2019-03-19T05:18:52.905Z,3.27
2019-03-19T05:19:52.905Z,3.15
2019-03-19T05:20:52.910Z,3.16
2019-03-19T05:21:52.909Z,3.15
2019-03-19T05:22:52.923Z,3.18
2019-03-19T05:23:52.903Z,3.1
2019-03-19T05:24:52.943Z,3.14
2019-03-19T05:25:53.788Z,3.15
2019-03-19T05:26:52.868Z,3.17
2019-03-19T05:27:53.062Z,3.21
2019-03-19T05:28:52.924Z,3.22
2019-03-19T05:29:52.919Z,3.1
2019-03-19T05:30:52.901Z,3.08
2019-03-19T05:31:52.889Z,3.07
2019-03-19T05:32:52.925Z,3.1
2019-03-19T05:33:52.927Z,3.04
2019-03-19T05:34:52.899Z,2.96
2019-03-19T05:35:52.884Z,2.96
2019-03-19T05:36:52.928Z,2.92
2019-03-19T05:37:52.902Z,2.98
2019-03-19T05:38:53.747Z,3
2019-03-19T05:39:52.908Z,3.02
2019-03-19T05:40:52.874Z,3.05
2019-03-19T05:41:52.974Z,3.06
2019-03-19T05:42:52.877Z,3.08
2019-03-19T05:43:52.894Z,3.1
2019-03-19T05:44:52.971Z,3.1
2019-03-19T05:45:52.851Z,3.1
2019-03-19T05:46:52.864Z,3.15
2019-03-19T05:48:52.872Z,3.17
2019-03-19T05:49:52.895Z,3.18
2019-03-19T05:50:52.887Z,3.18
2019-03-19T05:51:52.894Z,3.23
2019-03-19T05:52:52.875Z,3.22
2019-03-19T05:53:52.892Z,3.22
2019-03-19T05:54:52.870Z,3.23
2019-03-19T05:55:52.984Z,3.22
2019-03-19T05:56:52.853Z,3.23
2019-03-19T05:57:52.860Z,3.26
2019-03-19T05:58:52.903Z,3.26
2019-03-19T05:59:52.917Z,3.27
2019-03-19T06:00:52.966Z,3.28
2019-03-19T06:01:52.929Z,3.28
2019-03-19T06:02:53.133Z,3.28
2019-03-19T06:03:52.863Z,3.27
2019-03-19T06:04:52.849Z,3.27
2019-03-19T06:05:52.837Z,3.27
2019-03-19T06:06:52.853Z,3.31
2019-03-19T06:07:52.868Z,3.3
2019-03-19T06:08:52.831Z,3.3
2019-03-19T06:09:52.854Z,3.31
2019-03-19T06:10:54.499Z,3.34
2019-03-19T06:11:53.181Z,3.37
2019-03-19T06:12:52.924Z,3.39
2019-03-19T06:13:52.853Z,3.39
2019-03-19T06:14:52.826Z,3.4
2019-03-19T06:15:52.842Z,3.43
2019-03-19T06:16:52.822Z,3.42
2019-03-19T06:17:52.906Z,3.44
2019-03-19T06:18:52.882Z,3.45
2019-03-19T06:19:52.830Z,3.45
2019-03-19T06:20:52.880Z,3.46
2019-03-19T06:21:52.813Z,3.46
2019-03-19T06:22:52.847Z,3.49
2019-03-19T06:23:52.837Z,3.5
2019-03-19T06:24:52.805Z,3.48
2019-03-19T06:25:52.896Z,3.51
2019-03-19T06:26:52.901Z,3.52
2019-03-19T06:28:01.196Z,3.55
2019-03-19T06:28:52.865Z,3.56
2019-03-19T06:29:52.801Z,3.57
2019-03-19T06:30:52.814Z,3.58
2019-03-19T06:31:52.791Z,3.62
2019-03-19T06:32:53.202Z,3.63
2019-03-19T06:33:52.786Z,3.64
2019-03-19T06:34:52.790Z,3.65
2019-03-19T06:35:52.784Z,3.68
2019-03-19T06:36:52.829Z,3.7
2019-03-19T06:37:52.850Z,3.73
2019-03-19T06:38:52.781Z,3.74
2019-03-19T06:39:52.792Z,3.75
2019-03-19T06:40:52.813Z,3.77
2019-03-19T06:41:52.773Z,3.78
2019-03-19T06:42:52.807Z,3.77
2019-03-19T06:43:52.776Z,3.79
2019-03-19T06:44:52.783Z,3.79
2019-03-19T06:45:52.796Z,3.81
2019-03-19T06:46:52.781Z,3.82
2019-03-19T06:47:52.781Z,3.84
2019-03-19T06:48:52.777Z,3.87
2019-03-19T06:49:52.783Z,3.85
2019-03-19T06:50:52.803Z,3.81
2019-03-19T06:51:52.849Z,3.83
2019-03-19T06:52:52.799Z,3.84
2019-03-19T06:53:52.782Z,3.84
2019-03-19T06:54:53.430Z,3.85
2019-03-19T06:55:52.782Z,3.85
2019-03-19T06:56:52.772Z,3.84
2019-03-19T06:57:52.762Z,3.85
2019-03-19T06:58:52.754Z,3.85
2019-03-19T06:59:52.754Z,3.86
2019-03-19T07:00:52.760Z,3.88
2019-03-19T07:01:52.787Z,3.9
2019-03-19T07:02:52.808Z,3.89
2019-03-19T07:03:52.789Z,3.9
2019-03-19T07:04:52.769Z,3.9
2019-03-19T07:05:52.738Z,3.9
2019-03-19T07:06:52.760Z,3.9
2019-03-19T07:07:52.840Z,3.91
2019-03-19T07:08:52.783Z,3.93
2019-03-19T07:09:52.743Z,3.92
2019-03-19T07:10:52.750Z,3.94
2019-03-19T07:11:52.752Z,3.94
2019-03-19T07:12:52.748Z,3.95
2019-03-19T07:13:52.768Z,3.95
2019-03-19T07:14:52.785Z,3.96
2019-03-19T07:15:52.801Z,3.96
2019-03-19T07:16:52.734Z,3.97
2019-03-19T07:17:52.742Z,3.98
2019-03-19T07:18:52.730Z,4
2019-03-19T07:19:52.714Z,4.02
2019-03-19T07:20:52.713Z,4.01
2019-03-19T07:21:52.723Z,4
2019-03-19T07:22:52.720Z,4.03
2019-03-19T07:23:52.705Z,4.04
2019-03-19T07:24:52.728Z,4.05
2019-03-19T07:25:52.731Z,4.07
2019-03-19T07:26:52.717Z,4.06
2019-03-19T07:27:52.707Z,4.08
2019-03-19T07:28:52.756Z,4.09
2019-03-19T07:29:52.715Z,4.11
2019-03-19T07:30:52.713Z,4.14
2019-03-19T07:31:52.720Z,4.16
2019-03-19T07:32:52.710Z,4.2
2019-03-19T07:33:52.844Z,4.22
2019-03-19T07:34:52.684Z,4.26
2019-03-19T07:35:52.701Z,4.28
2019-03-19T07:36:52.686Z,4.3
2019-03-19T07:37:52.973Z,4.33
2019-03-19T07:38:52.522Z,4.34
2019-03-19T07:39:52.704Z,4.23
2019-03-19T07:40:52.724Z,4.27
2019-03-19T07:41:52.807Z,4.25
2019-03-19T07:42:52.709Z,4.3
2019-03-19T07:43:52.698Z,4.31
2019-03-19T07:44:52.714Z,4.33
2019-03-19T07:45:52.775Z,4.29
2019-03-19T07:46:52.711Z,4.25
2019-03-19T07:47:52.717Z,4.27
2019-03-19T07:48:52.929Z,4.32
2019-03-19T07:49:52.707Z,4.35
2019-03-19T07:50:52.685Z,4.38
2019-03-19T07:51:53.886Z,4.4
2019-03-19T07:52:52.700Z,4.45
2019-03-19T07:53:52.677Z,4.45
2019-03-19T07:54:52.678Z,4.52
2019-03-19T07:55:53.923Z,4.54
2019-03-19T07:56:52.688Z,4.58
2019-03-19T07:57:52.673Z,4.62
2019-03-19T07:58:52.706Z,4.66
2019-03-19T07:59:52.756Z,4.7
2019-03-19T08:00:52.695Z,4.69
2019-03-19T08:01:52.656Z,4.72
2019-03-19T08:02:52.751Z,4.74
2019-03-19T08:03:52.708Z,4.7
2019-03-19T08:04:52.650Z,4.71
2019-03-19T08:05:52.644Z,4.73
2019-03-19T08:06:52.691Z,4.79
2019-03-19T08:07:52.693Z,4.75
2019-03-19T08:08:52.786Z,4.77
2019-03-19T08:09:52.696Z,4.83
2019-03-19T08:10:52.646Z,4.79
2019-03-19T08:11:52.703Z,4.82
2019-03-19T08:12:52.675Z,4.83
2019-03-19T08:13:52.654Z,4.85
2019-03-19T08:14:52.762Z,4.89
2019-03-19T08:15:52.685Z,4.85
2019-03-19T08:16:53.649Z,4.88
2019-03-19T08:17:52.639Z,4.88
2019-03-19T08:18:52.654Z,4.92
2019-03-19T08:19:52.653Z,4.95
2019-03-19T08:20:52.854Z,4.97
2019-03-19T08:21:52.620Z,4.99
2019-03-19T08:22:52.620Z,5
2019-03-19T08:23:52.644Z,5.03
2019-03-19T08:24:52.623Z,5.02
2019-03-19T08:25:52.678Z,5.04
2019-03-19T08:26:52.631Z,5.07
2019-03-19T08:27:52.630Z,5.11
2019-03-19T08:28:55.936Z,5.15
2019-03-19T08:29:52.819Z,5.22
2019-03-19T08:30:52.665Z,5.24
2019-03-19T08:31:52.894Z,5.26
2019-03-19T08:32:52.626Z,5.28
2019-03-19T08:33:52.633Z,5.27
2019-03-19T08:34:52.626Z,5.28
2019-03-19T08:35:52.608Z,5.26
2019-03-19T08:36:52.648Z,5.27
2019-03-19T08:37:52.648Z,5.33
2019-03-19T08:38:52.596Z,5.39
2019-03-19T08:39:52.593Z,5.45
2019-03-19T08:40:52.699Z,5.52
2019-03-19T08:41:52.602Z,5.58
2019-03-19T08:42:53.625Z,5.59
2019-03-19T08:43:53.006Z,5.6
2019-03-19T08:44:52.602Z,5.64
2019-03-19T08:45:52.612Z,5.68
2019-03-19T08:46:52.575Z,5.71
2019-03-19T08:47:52.602Z,5.75
2019-03-19T08:48:52.581Z,5.78
2019-03-19T08:49:52.884Z,5.82
2019-03-19T08:50:52.563Z,5.84
2019-03-19T08:51:52.571Z,5.9
2019-03-19T08:52:56.088Z,5.95
2019-03-19T08:53:52.565Z,5.91
2019-03-19T08:54:52.602Z,5.88
2019-03-19T08:55:52.622Z,5.87
2019-03-19T08:56:52.571Z,5.87
2019-03-19T08:57:52.575Z,5.9
2019-03-19T08:58:52.669Z,5.94
2019-03-19T08:59:52.578Z,5.98
2019-03-19T09:00:52.546Z,6.01
2019-03-19T09:01:52.561Z,6.05
2019-03-19T09:02:52.561Z,6.03
2019-03-19T09:03:52.543Z,6.02
2019-03-19T09:04:52.590Z,6.04
2019-03-19T09:05:52.628Z,6.06
2019-03-19T09:06:52.576Z,6.09
2019-03-19T09:07:52.548Z,6.09
2019-03-19T09:08:52.540Z,6.14
2019-03-19T09:09:52.591Z,6.18
2019-03-19T09:10:52.679Z,6.17
2019-03-19T09:11:52.592Z,6.12
2019-03-19T09:12:52.574Z,6.13
2019-03-19T09:13:52.536Z,6.18
2019-03-19T09:14:52.531Z,6.13
2019-03-19T09:15:52.549Z,6.15
2019-03-19T09:16:52.595Z,6.17
2019-03-19T09:17:52.569Z,6.21
2019-03-19T09:18:52.540Z,6.18
2019-03-19T09:19:52.530Z,6.2
2019-03-19T09:20:54.377Z,6.18
2019-03-19T09:21:52.541Z,6.28
2019-03-19T09:22:52.586Z,6.31
2019-03-19T09:23:52.527Z,6.36
2019-03-19T09:24:52.585Z,6.39
2019-03-19T09:25:52.539Z,6.4
2019-03-19T09:26:52.516Z,6.41
2019-03-19T09:27:52.577Z,6.4
2019-03-19T09:28:52.536Z,6.42
2019-03-19T09:29:52.510Z,6.48
2019-03-19T09:30:52.523Z,6.49
2019-03-19T09:31:52.566Z,6.52
2019-03-19T09:32:52.655Z,6.53
2019-03-19T09:33:52.499Z,6.61
2019-03-19T09:34:52.513Z,6.68
2019-03-19T09:35:52.537Z,6.73
2019-03-19T09:36:58.089Z,6.8
2019-03-19T09:37:59.493Z,6.88
2019-03-19T09:38:52.505Z,6.96
2019-03-19T09:39:52.529Z,6.98
2019-03-19T09:40:52.543Z,6.93
2019-03-19T09:41:52.543Z,6.99
2019-03-19T09:42:52.550Z,7.06
2019-03-19T09:43:53.908Z,7.12
2019-03-19T09:44:59.010Z,7.16
2019-03-19T09:45:52.502Z,7.22
2019-03-19T09:46:52.524Z,7.23
2019-03-19T09:47:52.545Z,7.29
2019-03-19T09:48:52.564Z,7.33
2019-03-19T09:49:52.491Z,7.31
2019-03-19T09:50:52.497Z,7.27
2019-03-19T09:51:52.473Z,7.22
2019-03-19T09:52:52.475Z,7.19
2019-03-19T09:53:52.669Z,7.29
2019-03-19T09:54:52.803Z,7.26
2019-03-19T09:55:52.507Z,7.32
2019-03-19T09:56:52.482Z,7.36
2019-03-19T09:57:52.563Z,7.39
2019-03-19T09:58:52.542Z,7.41
2019-03-19T09:59:52.476Z,7.39
2019-03-19T10:00:52.481Z,7.44
2019-03-19T10:01:52.519Z,7.44
2019-03-19T10:02:52.451Z,7.44
2019-03-19T10:03:52.503Z,7.44
2019-03-19T10:04:52.525Z,7.51
2019-03-19T10:05:52.471Z,7.56
2019-03-19T10:06:52.479Z,7.58
2019-03-19T10:07:52.484Z,7.59
2019-03-19T10:08:52.498Z,7.65
2019-03-19T10:09:52.475Z,7.67
2019-03-19T10:10:52.886Z,7.72
2019-03-19T10:11:52.471Z,7.74
2019-03-19T10:12:52.471Z,7.84
2019-03-19T10:13:52.710Z,7.85
2019-03-19T10:14:52.457Z,7.93
2019-03-19T10:15:52.577Z,7.95
2019-03-19T10:16:52.492Z,7.95
2019-03-19T10:17:52.465Z,7.87
2019-03-19T10:18:52.541Z,7.76
2019-03-19T10:19:52.457Z,7.76
2019-03-19T10:20:52.446Z,7.78
2019-03-19T10:21:52.452Z,7.78
2019-03-19T10:22:52.515Z,7.87
2019-03-19T10:23:52.481Z,7.93
2019-03-19T10:24:52.438Z,7.97
2019-03-19T10:25:52.432Z,8.08
2019-03-19T10:26:52.419Z,8.07
2019-03-19T10:27:52.439Z,8
2019-03-19T10:28:52.427Z,7.98
2019-03-19T10:29:52.428Z,8.03
2019-03-19T10:30:52.410Z,8.14
2019-03-19T10:31:52.442Z,8.28
2019-03-19T10:32:52.633Z,8.2
2019-03-19T10:33:52.438Z,8.15
2019-03-19T10:34:52.481Z,8.24
2019-03-19T10:35:52.456Z,8.29
2019-03-19T10:36:52.439Z,8.44
2019-03-19T10:37:52.501Z,8.46
2019-03-19T10:38:52.498Z,8.42
2019-03-19T10:39:52.478Z,8.33
2019-03-19T10:40:52.417Z,8.37
2019-03-19T10:41:52.427Z,8.36
2019-03-19T10:42:52.408Z,8.29
2019-03-19T10:43:52.405Z,8.19
2019-03-19T10:44:52.392Z,8.15
2019-03-19T10:45:52.451Z,8.08
2019-03-19T10:46:52.429Z,8.03
2019-03-19T10:47:52.414Z,8.03
2019-03-19T10:48:52.397Z,8.07
2019-03-19T10:49:52.404Z,8.12
2019-03-19T10:50:52.464Z,8.16
2019-03-19T10:51:52.407Z,8.24
2019-03-19T10:52:52.423Z,8.34
2019-03-19T10:53:52.447Z,8.45
2019-03-19T10:54:52.469Z,8.46
2019-03-19T10:55:52.399Z,8.53
2019-03-19T10:56:52.404Z,8.53
2019-03-19T10:57:52.465Z,8.51
2019-03-19T10:58:52.690Z,8.52
2019-03-19T10:59:52.725Z,8.52
2019-03-19T11:00:06.657Z,8.55
2019-03-19T11:01:06.382Z,8.56
2019-03-19T11:02:06.344Z,8.51
2019-03-19T11:03:06.370Z,8.45
2019-03-19T11:04:06.462Z,8.55
2019-03-19T11:05:06.341Z,8.53
2019-03-19T11:06:06.357Z,8.47
2019-03-19T11:07:06.461Z,8.41
2019-03-19T11:08:06.414Z,8.41
2019-03-19T11:09:06.356Z,8.45
2019-03-19T11:10:06.415Z,8.45
2019-03-19T11:11:06.361Z,8.5
2019-03-19T11:12:06.331Z,8.53
2019-03-19T11:13:06.369Z,8.59
2019-03-19T11:14:06.348Z,8.67
2019-03-19T11:15:06.350Z,8.74
2019-03-19T11:16:06.358Z,8.83
2019-03-19T11:17:06.341Z,8.94
2019-03-19T11:18:06.338Z,9.02
2019-03-19T11:19:06.332Z,9.08
2019-03-19T11:20:06.383Z,9.21
2019-03-19T11:21:06.526Z,9.29
2019-03-19T11:22:06.534Z,9.37
2019-03-19T11:23:06.351Z,9.41
2019-03-19T11:24:06.351Z,9.32
2019-03-19T11:25:06.319Z,9.42
2019-03-19T11:26:06.357Z,9.33
2019-03-19T11:27:06.309Z,9.29
2019-03-19T11:28:06.339Z,9.25
2019-03-19T11:29:06.347Z,9.32
2019-03-19T11:30:07.020Z,9.45
2019-03-19T11:31:06.345Z,9.56
2019-03-19T11:32:06.306Z,9.68
2019-03-19T11:33:06.326Z,9.75
2019-03-19T11:34:06.360Z,9.63
2019-03-19T11:35:06.323Z,9.55
2019-03-19T11:36:06.325Z,9.59
2019-03-19T11:37:06.326Z,9.45
2019-03-19T11:38:06.342Z,9.35
2019-03-19T11:39:06.293Z,9.19
2019-03-19T11:40:06.388Z,9.25
2019-03-19T11:41:07.688Z,9.27
2019-03-19T11:42:06.703Z,9.26
2019-03-19T11:43:06.434Z,9.21
2019-03-19T11:44:06.301Z,9.2
2019-03-19T11:45:06.349Z,9.12
2019-03-19T11:46:06.301Z,8.96
2019-03-19T11:47:06.274Z,8.85
2019-03-19T11:48:06.336Z,8.83
2019-03-19T11:49:06.298Z,8.86
2019-03-19T11:50:06.299Z,9.03
2019-03-19T11:51:06.352Z,9.21
2019-03-19T11:52:06.280Z,9.17
2019-03-19T11:53:06.339Z,9.22
2019-03-19T11:54:06.316Z,9.15
2019-03-19T11:55:06.300Z,9.16
2019-03-19T11:56:06.295Z,9.22
2019-03-19T11:57:06.268Z,9.29
2019-03-19T11:58:06.279Z,9.35
2019-03-19T11:59:06.271Z,9.42
2019-03-19T12:00:12.006Z,9.35
2019-03-19T12:01:06.276Z,9.38
2019-03-19T12:02:06.347Z,9.37
2019-03-19T12:03:16.893Z,9.38
2019-03-19T12:04:06.436Z,9.38
2019-03-19T12:05:06.291Z,9.28
2019-03-19T12:06:06.312Z,9.21
2019-03-19T12:07:06.466Z,9.21
2019-03-19T12:08:06.320Z,9.32
2019-03-19T12:09:06.266Z,9.45
2019-03-19T12:10:06.360Z,9.59
2019-03-19T12:11:06.289Z,9.75
2019-03-19T12:12:06.275Z,9.84
2019-03-19T12:13:06.271Z,9.77
2019-03-19T12:14:06.279Z,9.52
2019-03-19T12:15:06.350Z,9.46
2019-03-19T12:16:06.329Z,9.46
2019-03-19T12:17:06.275Z,9.36
2019-03-19T12:18:06.306Z,9.28
2019-03-19T12:19:06.241Z,9.25
2019-03-19T12:20:06.374Z,9.28
2019-03-19T12:21:06.249Z,9.41
2019-03-19T12:22:06.253Z,9.5
2019-03-19T12:23:06.273Z,9.57
2019-03-19T12:24:06.273Z,9.56
2019-03-19T12:25:07.498Z,9.39
2019-03-19T12:26:06.356Z,9.41
2019-03-19T12:27:06.317Z,9.42
2019-03-19T12:28:06.241Z,9.41
2019-03-19T12:29:06.328Z,9.26
2019-03-19T12:30:06.335Z,9.29
2019-03-19T12:31:06.239Z,9.18
2019-03-19T12:32:06.226Z,9.11
2019-03-19T12:33:06.238Z,9.03
2019-03-19T12:34:06.249Z,9.06
2019-03-19T12:35:06.256Z,9.06
2019-03-19T12:36:06.229Z,9.08
2019-03-19T12:37:06.229Z,9.18
2019-03-19T12:38:06.204Z,9.28
2019-03-19T12:39:06.247Z,9.43
2019-03-19T12:40:06.264Z,9.56
2019-03-19T12:41:06.218Z,9.7
2019-03-19T12:42:06.264Z,9.81
2019-03-19T12:43:06.267Z,9.87
2019-03-19T12:44:06.248Z,9.87
2019-03-19T12:45:06.250Z,9.93
2019-03-19T12:46:06.248Z,10.02
2019-03-19T12:47:06.441Z,10.04
2019-03-19T12:48:06.217Z,10.04
2019-03-19T12:49:06.236Z,10.19
2019-03-19T12:50:06.301Z,10.16
2019-03-19T12:51:06.278Z,10.17
2019-03-19T12:52:06.279Z,10.23
2019-03-19T12:53:06.211Z,10.21
2019-03-19T12:54:06.197Z,10.24
2019-03-19T12:55:06.204Z,10.28
2019-03-19T12:56:06.258Z,10.2
2019-03-19T12:57:06.226Z,10.11
2019-03-19T12:58:06.227Z,10.1
2019-03-19T12:59:06.192Z,10.07
2019-03-19T13:00:06.285Z,10.08
2019-03-19T13:01:06.680Z,10.06
2019-03-19T13:02:06.209Z,10.03
2019-03-19T13:03:06.198Z,10.12
2019-03-19T13:04:06.201Z,10.09
2019-03-19T13:05:06.249Z,10.07
2019-03-19T13:06:06.225Z,9.92
2019-03-19T13:07:06.217Z,9.95
2019-03-19T13:08:06.287Z,9.82
2019-03-19T13:09:06.356Z,9.8
2019-03-19T13:10:06.190Z,9.74
2019-03-19T13:11:06.197Z,9.87
2019-03-19T13:12:06.179Z,9.95
2019-03-19T13:13:06.197Z,9.93
2019-03-19T13:14:06.201Z,9.95
2019-03-19T13:15:06.172Z,9.87
2019-03-19T13:16:06.194Z,9.8
2019-03-19T13:17:06.259Z,9.84
2019-03-19T13:18:06.193Z,9.8
2019-03-19T13:19:06.535Z,9.83
2019-03-19T13:20:06.248Z,9.8
2019-03-19T13:21:06.214Z,9.72
2019-03-19T13:22:06.239Z,9.84